CheckWX is a tool to help pilots better visualize weather data.  It is not intended as a substitute for an official pre-flight weather briefing.

09:54:25 UTC

KGLE METAR
Gainesville Municipal Airport
Gainesville, Texas, USA
Current

19 mins ago

KGLE 210935Z AUTO 03004KT 10SM CLR 00/M02 A3050 RMK AO2 T00021019
Observed
Jan-21 @ 09:35 UTC
Wind
  • 030° at 4 KTS
Visibility
10 SM
Flight Rules
VFR
Cloud Levels
  • Clear skies
Temperature
C / 32°F
Dewpoint
-2°C / 28°F
Humidity
87%
Altimeter
30.5" Hg
Pressure
1032.82 hPa
Previous

39 mins ago

KGLE 210915Z AUTO 04006KT 7SM CLR 00/M02 A3050 RMK AO2 T00031016
Observed
Jan-21 @ 09:15 UTC
Wind
  • 040° at 6 KTS
Visibility
7 SM
Flight Rules
VFR
Cloud Levels
  • Clear skies
Temperature
C / 32°F
Dewpoint
-2°C / 28°F
Humidity
87%
Altimeter
30.5" Hg
Pressure
1032.82 hPa
Previous

59 mins ago

KGLE 210855Z AUTO 04006KT 7SM CLR 01/M01 A3050 RMK AO2 T00051015
Observed
Jan-21 @ 08:55 UTC
Wind
  • 040° at 6 KTS
Visibility
7 SM
Flight Rules
VFR
Cloud Levels
  • Clear skies
Temperature
C / 34°F
Dewpoint
-2°C / 28°F
Humidity
81%
Altimeter
30.5" Hg
Pressure
1032.82 hPa